createdAt,value
2023-01-09T00:01:29.922Z,5.2
2023-01-09T00:04:29.903Z,5.1
2023-01-09T00:07:29.905Z,5.2
2023-01-09T00:10:29.910Z,5.2
2023-01-09T00:13:29.938Z,5.2
2023-01-09T00:16:30.015Z,5.2
2023-01-09T00:19:29.923Z,5.1
2023-01-09T00:22:29.939Z,5.1
2023-01-09T00:25:29.935Z,5.1
2023-01-09T00:28:29.953Z,5.1
2023-01-09T00:31:29.945Z,5.1
2023-01-09T00:34:29.969Z,5.1
2023-01-09T00:37:29.944Z,5
2023-01-09T00:40:29.982Z,5
2023-01-09T00:43:29.969Z,4.9
2023-01-09T00:46:29.958Z,4.9
2023-01-09T00:49:29.964Z,4.9
2023-01-09T00:52:29.990Z,4.9
2023-01-09T00:55:29.961Z,4.9
2023-01-09T00:58:29.970Z,4.9
2023-01-09T01:01:30.047Z,4.9
2023-01-09T01:04:29.970Z,5
2023-01-09T01:07:29.979Z,5.2
2023-01-09T01:10:30.000Z,5.4
2023-01-09T01:13:29.985Z,5.5
2023-01-09T01:16:30.118Z,5.6
2023-01-09T01:19:29.989Z,5.7
2023-01-09T01:22:29.996Z,5.7
2023-01-09T01:25:30.003Z,5.7
2023-01-09T01:28:30.046Z,5.8
2023-01-09T01:31:30.014Z,5.8
2023-01-09T01:34:30.048Z,5.9
2023-01-09T01:37:30.026Z,5.9
2023-01-09T01:40:30.036Z,5.9
2023-01-09T01:43:30.050Z,6
2023-01-09T01:46:30.075Z,6
2023-01-09T01:49:30.045Z,6.1
2023-01-09T01:52:30.050Z,6.2
2023-01-09T01:55:30.051Z,6.2
2023-01-09T01:58:30.071Z,6.3
2023-01-09T02:01:30.145Z,6.3
2023-01-09T02:04:30.109Z,6.4
2023-01-09T02:07:30.077Z,6.4
2023-01-09T02:10:30.099Z,6.5
2023-01-09T02:13:30.098Z,6.5
2023-01-09T02:16:30.086Z,6.5
2023-01-09T02:19:30.093Z,6.5
2023-01-09T02:22:30.126Z,6.5
2023-01-09T02:25:30.152Z,6.5
2023-01-09T02:28:30.137Z,6.5
2023-01-09T02:31:30.207Z,6.5
2023-01-09T02:34:30.132Z,6.4
2023-01-09T02:37:30.124Z,6.4
2023-01-09T02:40:30.154Z,6.4
2023-01-09T02:43:30.162Z,6.4
2023-01-09T02:46:30.145Z,6.4
2023-01-09T02:49:30.144Z,6.4
2023-01-09T02:52:30.177Z,6.4
2023-01-09T02:55:30.277Z,6.4
2023-01-09T02:58:30.228Z,6.4
2023-01-09T03:01:30.303Z,6.4
2023-01-09T03:04:30.173Z,6.4
2023-01-09T03:07:30.193Z,6.4
2023-01-09T03:10:30.174Z,6.4
2023-01-09T03:13:30.209Z,6.4
2023-01-09T03:16:30.254Z,6.4
2023-01-09T03:19:30.185Z,6.4
2023-01-09T03:22:30.192Z,6.4
2023-01-09T03:25:30.197Z,6.4
2023-01-09T03:28:30.225Z,6.4
2023-01-09T03:31:30.248Z,6.4
2023-01-09T03:34:30.226Z,6.4
2023-01-09T03:37:30.204Z,6.4
2023-01-09T03:40:30.224Z,6.4
2023-01-09T03:43:30.246Z,6.4
2023-01-09T03:46:30.231Z,6.4
2023-01-09T03:49:30.226Z,6.4
2023-01-09T03:52:30.264Z,6.4
2023-01-09T03:55:30.285Z,6.4
2023-01-09T03:58:30.352Z,6.4
2023-01-09T04:01:30.310Z,6.4
2023-01-09T04:04:30.248Z,6.4
2023-01-09T04:07:30.253Z,6.4
2023-01-09T04:10:30.290Z,6.4
2023-01-09T04:13:30.297Z,6.4
2023-01-09T04:16:30.322Z,6.4
2023-01-09T04:19:30.283Z,6.4
2023-01-09T04:22:30.283Z,6.4
2023-01-09T04:25:30.306Z,6.4
2023-01-09T04:28:30.321Z,6.4
2023-01-09T04:31:30.334Z,6.4
2023-01-09T04:34:30.288Z,6.4
2023-01-09T04:37:30.289Z,6.4
2023-01-09T04:40:30.300Z,6.4
2023-01-09T04:43:30.315Z,6.4
2023-01-09T04:46:30.315Z,6.4
2023-01-09T04:49:30.296Z,6.4
2023-01-09T04:52:30.299Z,6.4
2023-01-09T04:55:30.314Z,6.4
2023-01-09T04:58:30.318Z,6.4
2023-01-09T05:01:30.445Z,6.4
2023-01-09T05:04:30.340Z,6.4
2023-01-09T05:07:30.323Z,6.5
2023-01-09T05:10:30.320Z,6.5
2023-01-09T05:13:30.327Z,6.5
2023-01-09T05:16:30.357Z,6.5
2023-01-09T05:19:30.322Z,6.5
2023-01-09T05:22:30.344Z,6.5
2023-01-09T05:25:30.321Z,6.5
2023-01-09T05:28:30.340Z,6.5
2023-01-09T05:31:30.395Z,6.5
2023-01-09T05:34:30.331Z,6.5
2023-01-09T05:37:30.335Z,6.5
2023-01-09T05:40:38.520Z,6.5
2023-01-09T05:43:30.365Z,6.5
2023-01-09T05:46:30.338Z,6.5
2023-01-09T05:49:30.343Z,6.5
2023-01-09T05:52:30.338Z,6.5
2023-01-09T05:55:30.350Z,6.5
2023-01-09T05:58:30.391Z,6.5
2023-01-09T06:01:30.430Z,6.5
2023-01-09T06:04:30.359Z,6.5
2023-01-09T06:07:30.374Z,6.5
2023-01-09T06:10:30.374Z,6.5
2023-01-09T06:13:30.406Z,6.5
2023-01-09T06:16:30.526Z,6.5
2023-01-09T06:19:30.417Z,6.5
2023-01-09T06:22:30.413Z,6.4
2023-01-09T06:25:30.431Z,6.4
2023-01-09T06:28:30.438Z,6.4
2023-01-09T06:31:30.491Z,6.4
2023-01-09T06:34:30.471Z,6.4
2023-01-09T06:37:30.449Z,6.5
2023-01-09T06:40:30.453Z,6.5
2023-01-09T06:43:30.474Z,6.5
2023-01-09T06:46:30.500Z,6.5
2023-01-09T06:49:30.479Z,6.5
2023-01-09T06:52:30.539Z,6.5
2023-01-09T06:55:30.489Z,6.5
2023-01-09T06:58:30.504Z,6.5
2023-01-09T07:01:30.614Z,6.5
2023-01-09T07:04:30.536Z,6.5
2023-01-09T07:07:30.502Z,6.6
2023-01-09T07:10:30.639Z,6.6
2023-01-09T07:13:30.520Z,6.6
2023-01-09T07:16:30.527Z,6.6
2023-01-09T07:19:30.537Z,6.6
2023-01-09T07:22:30.536Z,6.6
2023-01-09T07:25:30.557Z,6.7
2023-01-09T07:28:30.577Z,6.6
2023-01-09T07:31:30.573Z,6.7
2023-01-09T07:34:30.554Z,6.6
2023-01-09T07:37:30.554Z,6.6
2023-01-09T07:40:30.561Z,6.6
2023-01-09T07:43:30.575Z,6.7
2023-01-09T07:46:30.620Z,6.6
2023-01-09T07:49:30.571Z,6.7
2023-01-09T07:52:30.578Z,6.7
2023-01-09T07:55:30.581Z,6.7
2023-01-09T07:58:30.596Z,6.7
2023-01-09T08:01:30.691Z,6.7
2023-01-09T08:04:30.631Z,6.7
2023-01-09T08:07:30.624Z,6.8
2023-01-09T08:10:30.608Z,6.8
2023-01-09T08:13:30.626Z,6.9
2023-01-09T08:16:30.621Z,6.8
2023-01-09T08:19:30.631Z,6.8
2023-01-09T08:22:30.651Z,6.8
2023-01-09T08:25:30.628Z,6.7
2023-01-09T08:28:30.640Z,6.6
2023-01-09T08:31:30.686Z,6.5
2023-01-09T08:34:30.681Z,6.4
2023-01-09T08:37:30.643Z,6.3
2023-01-09T08:40:30.677Z,6.2
2023-01-09T08:43:30.673Z,6.3
2023-01-09T08:46:30.820Z,6.4
2023-01-09T08:49:30.673Z,6.6
2023-01-09T08:52:30.691Z,6.9
2023-01-09T08:55:30.674Z,7.1
2023-01-09T08:58:30.721Z,7.3
2023-01-09T09:01:30.684Z,7.5
2023-01-09T09:04:30.689Z,7.6
2023-01-09T09:07:30.693Z,7.7
2023-01-09T09:10:30.697Z,7.8
2023-01-09T09:13:30.717Z,7.8
2023-01-09T09:16:30.798Z,7.9
2023-01-09T09:19:30.709Z,8
2023-01-09T09:22:30.717Z,8.1
2023-01-09T09:25:30.713Z,8.2
2023-01-09T09:28:30.731Z,8.4
2023-01-09T09:31:30.770Z,8.5
2023-01-09T09:34:30.753Z,8.6
2023-01-09T09:37:30.738Z,8.6
2023-01-09T09:40:30.735Z,8.6
2023-01-09T09:43:30.752Z,8.6
2023-01-09T09:46:30.779Z,8.6
2023-01-09T09:49:30.756Z,8.8
2023-01-09T09:52:30.782Z,8.8
2023-01-09T09:55:30.766Z,8.9
2023-01-09T09:58:30.786Z,8.9
2023-01-09T10:01:30.787Z,8.8
2023-01-09T10:04:30.778Z,8.9
2023-01-09T10:07:30.787Z,9
2023-01-09T10:10:30.816Z,9.1
2023-01-09T10:13:32.529Z,9.1
2023-01-09T10:16:30.800Z,9.1
2023-01-09T10:19:30.816Z,9.3
2023-01-09T10:22:30.848Z,9.6
2023-01-09T10:25:30.812Z,9.8
2023-01-09T10:28:30.947Z,10
2023-01-09T10:31:30.891Z,10.1
2023-01-09T10:34:30.829Z,10.2
2023-01-09T10:37:30.836Z,10.3
2023-01-09T10:40:30.838Z,10.4
2023-01-09T10:43:30.852Z,10.4
2023-01-09T10:46:30.955Z,10.5
2023-01-09T10:49:30.841Z,10.3
2023-01-09T10:52:30.856Z,10.3
2023-01-09T10:55:30.850Z,10.1
2023-01-09T10:58:30.871Z,9.7
2023-01-09T11:01:30.866Z,9.4
2023-01-09T11:04:30.900Z,9.2
2023-01-09T11:07:30.866Z,9
2023-01-09T11:10:30.883Z,9.1
2023-01-09T11:13:30.883Z,9.3
2023-01-09T11:16:30.888Z,9.3
2023-01-09T11:19:30.884Z,9.3
2023-01-09T11:22:30.946Z,9.2
2023-01-09T11:25:30.894Z,9.1
2023-01-09T11:28:30.939Z,9
2023-01-09T11:31:31.026Z,8.9
2023-01-09T11:34:30.927Z,9.1
2023-01-09T11:37:30.917Z,9.4
2023-01-09T11:40:30.944Z,9.7
2023-01-09T11:43:30.986Z,9.9
2023-01-09T11:46:30.967Z,9.9
2023-01-09T11:49:30.940Z,9.8
2023-01-09T11:52:30.931Z,9.8
2023-01-09T11:55:41.710Z,9.8
2023-01-09T11:58:30.979Z,9.8
2023-01-09T12:01:30.939Z,9.6
2023-01-09T12:04:30.960Z,9.4
2023-01-09T12:07:30.957Z,9.3
2023-01-09T12:10:30.971Z,9.3
2023-01-09T12:13:30.976Z,9.3
2023-01-09T12:16:31.021Z,9.4
2023-01-09T12:19:30.972Z,9.5
2023-01-09T12:22:30.970Z,9.6
2023-01-09T12:25:30.976Z,9.6
2023-01-09T12:28:30.997Z,9.6
2023-01-09T12:31:31.008Z,9.5
2023-01-09T12:34:31.012Z,9.5
2023-01-09T12:37:30.993Z,9.4
2023-01-09T12:40:30.997Z,9.2
2023-01-09T12:43:31.002Z,9.2
2023-01-09T12:46:31.022Z,9.1
2023-01-09T12:49:31.015Z,9.1
2023-01-09T12:52:31.040Z,9
2023-01-09T12:55:31.014Z,9
2023-01-09T12:58:31.034Z,8.9
2023-01-09T13:01:31.023Z,8.8
2023-01-09T13:04:31.032Z,8.8
2023-01-09T13:07:31.037Z,8.8
2023-01-09T13:10:31.078Z,8.8
2023-01-09T13:13:31.040Z,8.8
2023-01-09T13:16:31.072Z,8.8
2023-01-09T13:19:31.054Z,8.8
2023-01-09T13:22:31.051Z,8.8
2023-01-09T13:25:31.069Z,8.7
2023-01-09T13:28:31.084Z,8.8
2023-01-09T13:31:31.143Z,8.8
2023-01-09T13:34:31.083Z,8.9
2023-01-09T13:37:31.068Z,8.9
2023-01-09T13:40:31.077Z,8.9
2023-01-09T13:43:31.080Z,8.9
2023-01-09T13:46:31.117Z,8.9
2023-01-09T13:49:31.089Z,8.9
2023-01-09T13:52:31.091Z,8.8
2023-01-09T13:55:31.097Z,8.8
2023-01-09T13:58:31.104Z,8.9
2023-01-09T14:01:31.104Z,8.9
2023-01-09T14:04:31.137Z,8.9
2023-01-09T14:07:31.136Z,8.9
2023-01-09T14:10:31.120Z,9
2023-01-09T14:13:31.134Z,9.1
2023-01-09T14:16:31.277Z,9.1
2023-01-09T14:19:31.137Z,9.1
2023-01-09T14:22:31.167Z,8.9
2023-01-09T14:25:31.164Z,8.8
2023-01-09T14:28:31.158Z,8.7
2023-01-09T14:31:31.251Z,8.6
2023-01-09T14:34:31.982Z,8.6
2023-01-09T14:37:31.163Z,8.6
2023-01-09T14:40:31.185Z,8.6
2023-01-09T14:43:31.165Z,8.6
2023-01-09T14:46:31.171Z,8.5
2023-01-09T14:49:31.168Z,8.5
2023-01-09T14:52:31.171Z,8.5
2023-01-09T14:55:31.173Z,8.4
2023-01-09T14:58:31.212Z,8.4
2023-01-09T15:01:31.264Z,8.4
2023-01-09T15:04:31.211Z,8.4
2023-01-09T15:07:31.217Z,8.4
2023-01-09T15:10:31.226Z,8.3
2023-01-09T15:13:31.260Z,8.3
2023-01-09T15:16:31.294Z,8.3
2023-01-09T15:19:31.243Z,8.3
2023-01-09T15:22:31.280Z,8.3
2023-01-09T15:25:38.732Z,8.3
2023-01-09T15:28:31.263Z,8.3
2023-01-09T15:31:31.296Z,8.4
2023-01-09T15:34:31.294Z,8.3
2023-01-09T15:37:31.263Z,8.3
2023-01-09T15:40:31.264Z,8.3
2023-01-09T15:43:31.284Z,8.3
2023-01-09T15:46:31.281Z,8.3
2023-01-09T15:49:31.436Z,8.3
2023-01-09T15:52:31.317Z,8.2
2023-01-09T15:55:31.288Z,8.2
2023-01-09T15:58:31.293Z,8.2
2023-01-09T16:01:31.376Z,8.2
2023-01-09T16:04:31.302Z,8.2
2023-01-09T16:07:31.315Z,8.2
2023-01-09T16:10:31.342Z,8.3
2023-01-09T16:13:31.316Z,8.3
2023-01-09T16:16:31.451Z,8.2
2023-01-09T16:19:31.326Z,8.2
2023-01-09T16:22:31.327Z,8.2
2023-01-09T16:25:31.355Z,8.2
2023-01-09T16:28:31.360Z,8.2
2023-01-09T16:31:31.387Z,8.3
2023-01-09T16:34:31.340Z,8.3
2023-01-09T16:37:31.340Z,8.3
2023-01-09T16:40:31.347Z,8.3
2023-01-09T16:43:31.352Z,8.3
2023-01-09T16:46:31.400Z,8.2
2023-01-09T16:49:31.361Z,8.2
2023-01-09T16:52:31.360Z,8.1
2023-01-09T16:55:31.389Z,8.1
2023-01-09T16:58:31.371Z,8.1
2023-01-09T17:01:31.462Z,8.1
2023-01-09T17:04:31.426Z,8.1
2023-01-09T17:07:31.380Z,8.1
2023-01-09T17:10:31.394Z,8.1
2023-01-09T17:13:31.406Z,8
2023-01-09T17:16:31.414Z,8
2023-01-09T17:19:31.408Z,8
2023-01-09T17:22:31.428Z,8
2023-01-09T17:25:31.405Z,7.9
2023-01-09T17:28:31.429Z,7.9
2023-01-09T17:31:31.563Z,7.9
2023-01-09T17:34:31.450Z,7.7
2023-01-09T17:37:31.428Z,7.5
2023-01-09T17:40:31.495Z,7.3
2023-01-09T17:43:31.454Z,7.2
2023-01-09T17:46:31.440Z,7.1
2023-01-09T17:49:31.499Z,7.1
2023-01-09T17:52:31.467Z,7
2023-01-09T17:55:31.458Z,6.9
2023-01-09T17:58:31.503Z,6.9
2023-01-09T18:01:31.561Z,6.9
2023-01-09T18:04:31.479Z,6.9
2023-01-09T18:07:31.477Z,6.9
2023-01-09T18:10:31.492Z,6.9
2023-01-09T18:13:31.490Z,6.9
2023-01-09T18:16:31.582Z,6.9
2023-01-09T18:19:31.498Z,6.9
2023-01-09T18:22:31.502Z,6.9
2023-01-09T18:25:31.507Z,6.9
2023-01-09T18:28:31.506Z,6.9
2023-01-09T18:31:31.566Z,6.9
2023-01-09T18:34:31.539Z,6.9
2023-01-09T18:37:31.514Z,6.9
2023-01-09T18:40:31.519Z,6.9
2023-01-09T18:43:31.543Z,7
2023-01-09T18:46:31.530Z,7
2023-01-09T18:49:31.532Z,7
2023-01-09T18:52:31.552Z,7
2023-01-09T18:55:31.539Z,7
2023-01-09T18:58:31.543Z,6.9
2023-01-09T19:01:31.644Z,6.9
2023-01-09T19:04:31.549Z,6.9
2023-01-09T19:07:31.550Z,6.9
2023-01-09T19:10:31.574Z,6.9
2023-01-09T19:13:31.556Z,6.8
2023-01-09T19:16:31.662Z,6.8
2023-01-09T19:19:31.578Z,6.8
2023-01-09T19:22:31.576Z,6.8
2023-01-09T19:25:31.570Z,6.8
2023-01-09T19:28:31.593Z,6.8
2023-01-09T19:31:31.630Z,6.7
2023-01-09T19:34:31.591Z,6.7
2023-01-09T19:37:31.593Z,6.7
2023-01-09T19:40:31.592Z,6.7
2023-01-09T19:43:31.600Z,6.6
2023-01-09T19:46:31.631Z,6.6
2023-01-09T19:49:31.613Z,6.5
2023-01-09T19:52:31.616Z,6.5
2023-01-09T19:55:31.619Z,6.4
2023-01-09T19:58:31.626Z,6.4
2023-01-09T20:01:31.714Z,6.4
2023-01-09T20:04:31.654Z,6.4
2023-01-09T20:07:31.631Z,6.4
2023-01-09T20:10:31.640Z,6.4
2023-01-09T20:13:31.632Z,6.4
2023-01-09T20:16:31.754Z,6.4
2023-01-09T20:19:31.644Z,6.3
2023-01-09T20:22:31.675Z,6.3
2023-01-09T20:25:31.697Z,6.3
2023-01-09T20:28:31.661Z,6.3
2023-01-09T20:31:31.772Z,6.3
2023-01-09T20:34:31.677Z,6.2
2023-01-09T20:37:31.682Z,6.2
2023-01-09T20:40:31.732Z,6.2
2023-01-09T20:43:31.690Z,6.2
2023-01-09T20:46:31.692Z,6.2
2023-01-09T20:49:31.694Z,6.2
2023-01-09T20:52:31.694Z,6.2
2023-01-09T20:55:31.704Z,6.2
2023-01-09T20:58:31.731Z,6.2
2023-01-09T21:01:31.705Z,6.2
2023-01-09T21:04:31.739Z,6.1
2023-01-09T21:07:31.708Z,6.1
2023-01-09T21:10:31.713Z,6
2023-01-09T21:13:31.767Z,6
2023-01-09T21:16:31.787Z,6
2023-01-09T21:19:31.736Z,5.9
2023-01-09T21:22:31.742Z,5.9
2023-01-09T21:25:31.746Z,5.9
2023-01-09T21:28:31.751Z,5.9
2023-01-09T21:31:31.791Z,5.9
2023-01-09T21:34:31.779Z,5.8
2023-01-09T21:37:31.763Z,5.7
2023-01-09T21:40:31.769Z,5.6
2023-01-09T21:43:31.771Z,5.6
2023-01-09T21:46:31.786Z,5.6
2023-01-09T21:49:31.772Z,5.6
2023-01-09T21:52:31.808Z,5.6
2023-01-09T21:55:31.786Z,5.6
2023-01-09T21:58:31.790Z,5.6
2023-01-09T22:01:31.792Z,5.5
2023-01-09T22:04:31.820Z,5.5
2023-01-09T22:07:31.794Z,5.5
2023-01-09T22:10:31.831Z,5.5
2023-01-09T22:13:31.798Z,5.5
2023-01-09T22:16:31.852Z,5.5
2023-01-09T22:19:31.800Z,5.5
2023-01-09T22:22:31.814Z,5.5
2023-01-09T22:25:31.814Z,5.5
2023-01-09T22:28:31.838Z,5.6
2023-01-09T22:31:31.866Z,5.6
2023-01-09T22:34:31.834Z,5.7
2023-01-09T22:37:31.823Z,5.7
2023-01-09T22:40:31.828Z,5.7
2023-01-09T22:43:31.828Z,5.7
2023-01-09T22:46:31.854Z,5.8
2023-01-09T22:49:37.287Z,5.8
2023-01-09T22:52:31.828Z,5.8
2023-01-09T22:55:31.840Z,5.9
2023-01-09T22:58:31.827Z,5.9
2023-01-09T23:01:31.833Z,5.9
2023-01-09T23:04:31.854Z,6
2023-01-09T23:07:31.829Z,6
2023-01-09T23:10:31.837Z,6
2023-01-09T23:13:31.840Z,6.1
2023-01-09T23:16:31.883Z,6.1
2023-01-09T23:19:31.838Z,6.1
2023-01-09T23:22:31.865Z,6.1
2023-01-09T23:25:31.956Z,6.1
2023-01-09T23:28:31.847Z,6.1
2023-01-09T23:31:31.945Z,6.1
2023-01-09T23:34:31.845Z,6.1
2023-01-09T23:37:31.842Z,6.1
2023-01-09T23:40:31.869Z,6.1
2023-01-09T23:43:31.851Z,6.1
2023-01-09T23:46:31.854Z,6.1
2023-01-09T23:49:31.855Z,6.1
2023-01-09T23:52:31.855Z,6.1
2023-01-09T23:55:31.868Z,6.2
2023-01-09T23:58:31.881Z,6.2
